AIZ2218 LGAV-LLBG
Flight info
| Callsign | AIZ2218 |
|---|---|
| Flight time | 0h 57m |
| Altitude | 23000 |
| Route | KEA N132 TUXEM/N0429F350 UT514 PEXAN UM601 MADEX UN132 KUPIS UN134 VANZA DCT PIKOG L609 ZUKKO |
| Aircraft | A21N/M-SDE2E3FGHIRWXY/LB1 |
Departure
| Time | 2026-05-07 23:39 |
|---|---|
| Airport | Athens Eleftherios Venizelos International Airport (LGAV) |
Arrival
| Time | 2026-05-08 00:37 |
|---|---|
| Airport | Ben Gurion International Airport (LLBG) |
| Time | Latitude | Longitude | Altitude | Speed | Heading |
|---|---|---|---|---|---|
| 2026-05-07 23:18 | 37.93146 | 23.94371 | 306 ft | 0 kts | 217° |
| 2026-05-07 23:27 | 37.93151 | 23.94376 | 308 ft | 4 kts | 215° |
| 2026-05-07 23:27 | 37.93167 | 23.94389 | 305 ft | 4 kts | 207° |
| 2026-05-07 23:27 | 37.93191 | 23.94401 | 303 ft | 4 kts | 187° |
| 2026-05-07 23:28 | 37.93215 | 23.94398 | 304 ft | 4 kts | 140° |
| 2026-05-07 23:28 | 37.93221 | 23.94392 | 303 ft | 0 kts | 127° |
| 2026-05-07 23:30 | 37.93220 | 23.94392 | 303 ft | 0 kts | 127° |
| 2026-05-07 23:30 | 37.93206 | 23.94417 | 305 ft | 10 kts | 127° |
| 2026-05-07 23:30 | 37.93152 | 23.94508 | 305 ft | 13 kts | 126° |
| 2026-05-07 23:31 | 37.93102 | 23.94594 | 308 ft | 14 kts | 128° |
| 2026-05-07 23:31 | 37.93069 | 23.94730 | 305 ft | 16 kts | 48° |
| 2026-05-07 23:31 | 37.93145 | 23.94803 | 306 ft | 14 kts | 36° |
| 2026-05-07 23:31 | 37.93221 | 23.94873 | 304 ft | 13 kts | 36° |
| 2026-05-07 23:32 | 37.93294 | 23.94941 | 304 ft | 13 kts | 36° |
| 2026-05-07 23:32 | 37.93367 | 23.95011 | 306 ft | 14 kts | 39° |
| 2026-05-07 23:32 | 37.93470 | 23.95112 | 302 ft | 20 kts | 37° |
| 2026-05-07 23:32 | 37.93581 | 23.95217 | 302 ft | 20 kts | 37° |
| 2026-05-07 23:33 | 37.93691 | 23.95321 | 303 ft | 19 kts | 37° |
| 2026-05-07 23:33 | 37.93799 | 23.95423 | 303 ft | 19 kts | 37° |
| 2026-05-07 23:33 | 37.93905 | 23.95524 | 303 ft | 19 kts | 37° |
| 2026-05-07 23:33 | 37.94006 | 23.95621 | 302 ft | 18 kts | 37° |
| 2026-05-07 23:34 | 37.94105 | 23.95714 | 304 ft | 17 kts | 37° |
| 2026-05-07 23:34 | 37.94198 | 23.95803 | 304 ft | 16 kts | 33° |
| 2026-05-07 23:34 | 37.94285 | 23.95883 | 304 ft | 15 kts | 36° |
| 2026-05-07 23:34 | 37.94366 | 23.95961 | 304 ft | 14 kts | 37° |
| 2026-05-07 23:35 | 37.94444 | 23.96035 | 305 ft | 14 kts | 37° |
| 2026-05-07 23:35 | 37.94535 | 23.96122 | 304 ft | 23 kts | 37° |
| 2026-05-07 23:35 | 37.94691 | 23.96270 | 304 ft | 29 kts | 38° |
| 2026-05-07 23:35 | 37.94848 | 23.96417 | 305 ft | 27 kts | 36° |
| 2026-05-07 23:36 | 37.94996 | 23.96557 | 307 ft | 26 kts | 37° |
| 2026-05-07 23:36 | 37.95136 | 23.96689 | 306 ft | 24 kts | 37° |
| 2026-05-07 23:36 | 37.95269 | 23.96814 | 309 ft | 23 kts | 37° |
| 2026-05-07 23:36 | 37.95388 | 23.96947 | 306 ft | 20 kts | 62° |
| 2026-05-07 23:37 | 37.95326 | 23.97023 | 311 ft | 12 kts | 173° |
| 2026-05-07 23:37 | 37.95258 | 23.97033 | 313 ft | 9 kts | 174° |
| 2026-05-07 23:37 | 37.95182 | 23.97016 | 313 ft | 11 kts | 216° |
| 2026-05-07 23:37 | 37.95171 | 23.97005 | 313 ft | 0 kts | 216° |
| 2026-05-07 23:38 | 37.95160 | 23.96995 | 313 ft | 15 kts | 216° |
| 2026-05-07 23:38 | 37.94921 | 23.96764 | 310 ft | 70 kts | 217° |
| 2026-05-07 23:38 | 37.94379 | 23.96252 | 292 ft | 126 kts | 217° |
| 2026-05-07 23:39 | 37.93535 | 23.95459 | 291 ft | 171 kts | 216° |
| 2026-05-07 23:39 | 37.92626 | 23.94502 | 792 ft | 158 kts | 224° |
| 2026-05-07 23:39 | 37.91829 | 23.93634 | 1308 ft | 155 kts | 205° |
| 2026-05-07 23:39 | 37.90795 | 23.93163 | 1644 ft | 160 kts | 198° |
| 2026-05-07 23:40 | 37.89737 | 23.92711 | 2088 ft | 165 kts | 201° |
| 2026-05-07 23:40 | 37.88626 | 23.92131 | 2318 ft | 183 kts | 204° |
| 2026-05-07 23:40 | 37.87398 | 23.91385 | 2465 ft | 209 kts | 208° |
| 2026-05-07 23:40 | 37.86049 | 23.90483 | 2833 ft | 226 kts | 208° |
| 2026-05-07 23:41 | 37.84658 | 23.89522 | 3530 ft | 228 kts | 208° |
| 2026-05-07 23:41 | 37.83262 | 23.88548 | 4233 ft | 231 kts | 208° |
| 2026-05-07 23:41 | 37.81836 | 23.87555 | 4866 ft | 237 kts | 209° |
| 2026-05-07 23:41 | 37.80381 | 23.86525 | 5527 ft | 242 kts | 209° |
| 2026-05-07 23:42 | 37.78913 | 23.85493 | 6158 ft | 247 kts | 207° |
| 2026-05-07 23:42 | 37.77293 | 23.84774 | 6756 ft | 252 kts | 188° |
| 2026-05-07 23:42 | 37.75544 | 23.84966 | 7342 ft | 260 kts | 162° |
| 2026-05-07 23:42 | 37.73993 | 23.86252 | 7780 ft | 279 kts | 133° |
| 2026-05-07 23:43 | 37.72915 | 23.88349 | 8347 ft | 289 kts | 121° |
| 2026-05-07 23:43 | 37.71984 | 23.90639 | 8997 ft | 295 kts | 119° |
| 2026-05-07 23:43 | 37.71054 | 23.92978 | 9684 ft | 301 kts | 119° |
| 2026-05-07 23:43 | 37.70098 | 23.95351 | 10331 ft | 308 kts | 120° |
| 2026-05-07 23:44 | 37.69082 | 23.97833 | 10650 ft | 327 kts | 120° |
| 2026-05-07 23:44 | 37.68002 | 24.00449 | 10906 ft | 347 kts | 120° |
| 2026-05-07 23:44 | 37.66858 | 24.03206 | 11266 ft | 361 kts | 119° |
| 2026-05-07 23:44 | 37.65680 | 24.06040 | 11808 ft | 368 kts | 119° |
| 2026-05-07 23:45 | 37.64479 | 24.08924 | 12473 ft | 372 kts | 119° |
| 2026-05-07 23:45 | 37.63288 | 24.11780 | 13132 ft | 376 kts | 119° |
| 2026-05-07 23:45 | 37.62061 | 24.14719 | 13782 ft | 380 kts | 119° |
| 2026-05-07 23:45 | 37.60822 | 24.17682 | 14346 ft | 384 kts | 119° |
| 2026-05-07 23:46 | 37.59567 | 24.20678 | 14908 ft | 388 kts | 119° |
| 2026-05-07 23:46 | 37.58300 | 24.23702 | 15479 ft | 392 kts | 119° |
| 2026-05-07 23:46 | 37.57021 | 24.26752 | 16039 ft | 395 kts | 119° |
| 2026-05-07 23:46 | 37.55591 | 24.29733 | 16597 ft | 397 kts | 128° |
| 2026-05-07 23:47 | 37.53833 | 24.32428 | 17158 ft | 399 kts | 134° |
| 2026-05-07 23:47 | 37.51906 | 24.34972 | 17697 ft | 402 kts | 137° |
| 2026-05-07 23:47 | 37.49887 | 24.37443 | 18227 ft | 406 kts | 139° |
| 2026-05-07 23:47 | 37.47857 | 24.39861 | 18692 ft | 409 kts | 139° |
| 2026-05-07 23:48 | 37.45776 | 24.42340 | 19138 ft | 413 kts | 138° |
| 2026-05-07 23:48 | 37.44008 | 24.44465 | 19507 ft | 416 kts | 138° |
| 2026-05-07 23:48 | 37.43919 | 24.44571 | 19528 ft | 416 kts | 138° |
| 2026-05-07 23:48 | 37.41827 | 24.47115 | 19959 ft | 420 kts | 137° |
| 2026-05-07 23:49 | 37.39726 | 24.49692 | 20390 ft | 423 kts | 137° |
| 2026-05-07 23:49 | 37.37616 | 24.52295 | 20756 ft | 428 kts | 137° |
| 2026-05-07 23:49 | 37.35484 | 24.54929 | 21148 ft | 431 kts | 137° |
| 2026-05-07 23:49 | 37.33337 | 24.57584 | 21561 ft | 434 kts | 137° |
| 2026-05-07 23:50 | 37.31173 | 24.60259 | 21957 ft | 437 kts | 137° |
| 2026-05-07 23:50 | 37.28994 | 24.62947 | 22344 ft | 440 kts | 137° |
| 2026-05-07 23:50 | 37.26801 | 24.65650 | 22721 ft | 443 kts | 137° |
| 2026-05-07 23:50 | 37.24592 | 24.68368 | 23050 ft | 446 kts | 137° |
| 2026-05-07 23:51 | 37.22373 | 24.71096 | 23126 ft | 447 kts | 137° |
| 2026-05-07 23:51 | 37.20175 | 24.73796 | 23126 ft | 447 kts | 137° |
| 2026-05-07 23:51 | 37.17947 | 24.76531 | 23126 ft | 448 kts | 137° |
| 2026-05-07 23:51 | 37.15721 | 24.79259 | 23129 ft | 448 kts | 137° |
| 2026-05-07 23:52 | 37.13492 | 24.81991 | 23127 ft | 448 kts | 137° |
| 2026-05-07 23:52 | 37.11260 | 24.84722 | 23129 ft | 448 kts | 137° |
| 2026-05-07 23:52 | 37.09026 | 24.87454 | 23124 ft | 448 kts | 137° |
| 2026-05-07 23:52 | 37.06795 | 24.90180 | 23128 ft | 448 kts | 137° |
| 2026-05-07 23:53 | 37.04563 | 24.92903 | 23131 ft | 448 kts | 137° |
| 2026-05-07 23:53 | 37.03319 | 24.94421 | 23391 ft | 448 kts | 136° |
| 2026-05-07 23:53 | 37.01117 | 24.97102 | 23193 ft | 434 kts | 136° |
| 2026-05-07 23:53 | 36.99015 | 24.99661 | 23008 ft | 419 kts | 136° |
| 2026-05-07 23:54 | 36.96971 | 25.02150 | 23005 ft | 404 kts | 136° |
| 2026-05-07 23:54 | 36.94961 | 25.04596 | 23002 ft | 403 kts | 136° |
| 2026-05-07 23:54 | 36.92833 | 25.06869 | 23000 ft | 404 kts | 145° |
| 2026-05-07 23:54 | 36.90395 | 25.08596 | 23002 ft | 403 kts | 155° |
| 2026-05-07 23:55 | 36.87801 | 25.09952 | 23000 ft | 404 kts | 159° |
| 2026-05-07 23:55 | 36.85145 | 25.11142 | 23000 ft | 404 kts | 161° |
| 2026-05-07 23:55 | 36.82466 | 25.12237 | 23000 ft | 404 kts | 162° |
| 2026-05-07 23:55 | 36.79783 | 25.13292 | 22999 ft | 404 kts | 162° |
| 2026-05-07 23:56 | 36.77098 | 25.14341 | 23000 ft | 404 kts | 162° |
| 2026-05-07 23:56 | 36.74426 | 25.15435 | 22997 ft | 404 kts | 158° |
| 2026-05-07 23:56 | 36.71945 | 25.16978 | 22999 ft | 404 kts | 147° |
| 2026-05-07 23:56 | 36.69775 | 25.19184 | 23000 ft | 403 kts | 133° |
| 2026-05-07 23:57 | 36.68130 | 25.21999 | 23000 ft | 403 kts | 117° |
| 2026-05-07 23:57 | 36.67135 | 25.25257 | 23005 ft | 403 kts | 105° |
| 2026-05-07 23:57 | 36.66511 | 25.28659 | 23000 ft | 403 kts | 101° |
| 2026-05-07 23:57 | 36.66050 | 25.32113 | 23000 ft | 404 kts | 98° |
| 2026-05-07 23:58 | 36.65610 | 25.35568 | 22998 ft | 404 kts | 103° |
| 2026-05-07 23:58 | 36.64752 | 25.38889 | 22999 ft | 404 kts | 115° |
| 2026-05-07 23:58 | 36.63309 | 25.41880 | 23001 ft | 403 kts | 127° |
| 2026-05-07 23:58 | 36.61510 | 25.44564 | 23001 ft | 403 kts | 132° |
| 2026-05-07 23:59 | 36.59570 | 25.47088 | 23000 ft | 404 kts | 135° |
| 2026-05-07 23:59 | 36.57555 | 25.49525 | 23000 ft | 404 kts | 136° |
| 2026-05-07 23:59 | 36.55509 | 25.51929 | 23000 ft | 404 kts | 136° |
| 2026-05-07 23:59 | 36.53460 | 25.54327 | 23000 ft | 404 kts | 136° |
| 2026-05-08 00:00 | 36.51419 | 25.56733 | 23000 ft | 404 kts | 136° |
| 2026-05-08 00:00 | 36.49386 | 25.59152 | 23000 ft | 404 kts | 136° |
| 2026-05-08 00:00 | 36.47368 | 25.61572 | 23000 ft | 404 kts | 136° |
| 2026-05-08 00:00 | 36.45368 | 25.63979 | 23000 ft | 404 kts | 136° |
| 2026-05-08 00:01 | 36.43352 | 25.66413 | 23000 ft | 404 kts | 136° |
| 2026-05-08 00:01 | 36.41336 | 25.68848 | 23000 ft | 404 kts | 136° |
| 2026-05-08 00:01 | 36.39321 | 25.71280 | 22999 ft | 404 kts | 136° |
| 2026-05-08 00:01 | 36.37296 | 25.73721 | 23000 ft | 404 kts | 136° |
| 2026-05-08 00:02 | 36.35276 | 25.76154 | 23000 ft | 405 kts | 136° |
| 2026-05-08 00:02 | 36.33255 | 25.78584 | 23000 ft | 405 kts | 136° |
| 2026-05-08 00:02 | 36.31235 | 25.81012 | 23000 ft | 404 kts | 136° |
| 2026-05-08 00:02 | 36.29213 | 25.83438 | 22999 ft | 404 kts | 136° |
| 2026-05-08 00:03 | 36.27191 | 25.85865 | 23000 ft | 404 kts | 136° |
| 2026-05-08 00:03 | 36.25216 | 25.88334 | 22997 ft | 404 kts | 130° |
| 2026-05-08 00:03 | 36.23577 | 25.91165 | 23001 ft | 404 kts | 121° |
| 2026-05-08 00:03 | 36.22203 | 25.94198 | 23000 ft | 404 kts | 117° |
| 2026-05-08 00:04 | 36.20940 | 25.97309 | 22999 ft | 404 kts | 116° |
| 2026-05-08 00:04 | 36.19741 | 26.00457 | 23000 ft | 404 kts | 115° |
| 2026-05-08 00:04 | 36.18582 | 26.03584 | 23000 ft | 404 kts | 114° |
| 2026-05-08 00:04 | 36.17415 | 26.06748 | 23000 ft | 404 kts | 114° |
| 2026-05-08 00:05 | 36.16238 | 26.09922 | 23000 ft | 404 kts | 115° |
| 2026-05-08 00:05 | 36.15055 | 26.13080 | 23000 ft | 404 kts | 115° |
| 2026-05-08 00:05 | 36.13864 | 26.16236 | 23000 ft | 404 kts | 115° |
| 2026-05-08 00:05 | 36.12670 | 26.19383 | 23000 ft | 404 kts | 115° |
| 2026-05-08 00:06 | 36.11486 | 26.22488 | 23000 ft | 404 kts | 115° |
| 2026-05-08 00:06 | 36.10285 | 26.25634 | 23000 ft | 404 kts | 115° |
| 2026-05-08 00:06 | 36.09080 | 26.28787 | 23000 ft | 404 kts | 115° |
| 2026-05-08 00:06 | 36.07878 | 26.31929 | 23000 ft | 404 kts | 115° |
| 2026-05-08 00:07 | 36.06675 | 26.35071 | 22999 ft | 404 kts | 115° |
| 2026-05-08 00:07 | 36.05472 | 26.38209 | 23000 ft | 404 kts | 115° |
| 2026-05-08 00:07 | 36.04268 | 26.41351 | 23000 ft | 404 kts | 115° |
| 2026-05-08 00:07 | 36.03061 | 26.44496 | 22999 ft | 404 kts | 115° |
| 2026-05-08 00:08 | 36.01856 | 26.47633 | 23000 ft | 404 kts | 115° |
| 2026-05-08 00:08 | 36.00664 | 26.50734 | 23000 ft | 404 kts | 115° |
| 2026-05-08 00:08 | 35.99458 | 26.53867 | 23000 ft | 404 kts | 115° |
| 2026-05-08 00:08 | 35.98247 | 26.57010 | 23008 ft | 405 kts | 115° |
| 2026-05-08 00:09 | 35.97032 | 26.60159 | 23337 ft | 408 kts | 115° |
| 2026-05-08 00:09 | 35.95809 | 26.63328 | 23774 ft | 409 kts | 115° |
| 2026-05-08 00:09 | 35.94581 | 26.66504 | 24165 ft | 410 kts | 115° |
| 2026-05-08 00:09 | 35.93346 | 26.69697 | 24527 ft | 413 kts | 115° |
| 2026-05-08 00:10 | 35.92121 | 26.72861 | 24877 ft | 415 kts | 115° |
| 2026-05-08 00:10 | 35.90858 | 26.76122 | 25214 ft | 417 kts | 115° |
| 2026-05-08 00:10 | 35.89619 | 26.79314 | 25537 ft | 419 kts | 115° |
| 2026-05-08 00:10 | 35.88357 | 26.82561 | 25859 ft | 421 kts | 115° |
| 2026-05-08 00:11 | 35.87087 | 26.85825 | 26167 ft | 423 kts | 115° |
| 2026-05-08 00:11 | 35.85808 | 26.89109 | 26472 ft | 425 kts | 115° |
| 2026-05-08 00:11 | 35.84521 | 26.92404 | 26767 ft | 427 kts | 116° |
| 2026-05-08 00:11 | 35.83226 | 26.95708 | 27053 ft | 429 kts | 116° |
| 2026-05-08 00:12 | 35.81924 | 26.99022 | 27332 ft | 431 kts | 116° |
| 2026-05-08 00:12 | 35.80613 | 27.02364 | 27604 ft | 433 kts | 116° |
| 2026-05-08 00:12 | 35.79302 | 27.05705 | 27866 ft | 434 kts | 116° |
| 2026-05-08 00:12 | 35.77985 | 27.09060 | 28121 ft | 436 kts | 116° |
| 2026-05-08 00:13 | 35.76660 | 27.12433 | 28373 ft | 438 kts | 116° |
| 2026-05-08 00:13 | 35.75332 | 27.15810 | 28614 ft | 439 kts | 116° |
| 2026-05-08 00:13 | 35.73997 | 27.19203 | 28889 ft | 440 kts | 116° |
| 2026-05-08 00:13 | 35.72678 | 27.22550 | 29181 ft | 439 kts | 116° |
| 2026-05-08 00:14 | 35.71344 | 27.25933 | 29523 ft | 438 kts | 116° |
| 2026-05-08 00:14 | 35.70013 | 27.29303 | 29847 ft | 437 kts | 116° |
| 2026-05-08 00:14 | 35.68683 | 27.32667 | 30134 ft | 436 kts | 116° |
| 2026-05-08 00:14 | 35.67354 | 27.36024 | 30405 ft | 436 kts | 116° |
| 2026-05-08 00:15 | 35.66029 | 27.39370 | 30667 ft | 435 kts | 116° |
| 2026-05-08 00:15 | 35.65151 | 27.41584 | 30837 ft | 435 kts | 116° |
| 2026-05-08 00:15 | 35.63822 | 27.44933 | 30985 ft | 437 kts | 116° |
| 2026-05-08 00:15 | 35.62490 | 27.48287 | 30996 ft | 436 kts | 116° |
| 2026-05-08 00:16 | 35.59833 | 27.54965 | 31000 ft | 435 kts | 116° |
| 2026-05-08 00:16 | 35.57171 | 27.61642 | 31001 ft | 435 kts | 116° |
| 2026-05-08 00:17 | 35.54503 | 27.68322 | 31002 ft | 435 kts | 116° |
| 2026-05-08 00:17 | 35.51846 | 27.74959 | 30999 ft | 435 kts | 116° |
| 2026-05-08 00:18 | 35.49171 | 27.81627 | 30998 ft | 435 kts | 116° |
| 2026-05-08 00:18 | 35.46638 | 27.87931 | 30998 ft | 435 kts | 116° |
| 2026-05-08 00:19 | 35.23273 | 28.48293 | 30961 ft | 431 kts | 105° |
| 2026-05-08 00:19 | 35.12483 | 28.87439 | 30980 ft | 435 kts | 109° |
| 2026-05-08 00:20 | 35.11654 | 28.90401 | 31001 ft | 435 kts | 109° |
| 2026-05-08 00:20 | 35.08800 | 29.00582 | 30999 ft | 435 kts | 109° |
| 2026-05-08 00:21 | 35.04811 | 29.14464 | 30998 ft | 435 kts | 109° |
| 2026-05-08 00:21 | 34.91530 | 29.56694 | 31006 ft | 434 kts | 117° |
| 2026-05-08 00:22 | 34.76424 | 29.98314 | 31013 ft | 434 kts | 114° |
| 2026-05-08 00:22 | 34.63691 | 30.23243 | 30901 ft | 437 kts | 122° |
| 2026-05-08 00:22 | 34.51360 | 30.48073 | 31089 ft | 433 kts | 122° |
| 2026-05-08 00:23 | 34.38450 | 30.72882 | 30913 ft | 436 kts | 122° |
| 2026-05-08 00:23 | 34.25571 | 30.97718 | 31035 ft | 435 kts | 122° |
| 2026-05-08 00:23 | 33.99686 | 31.47084 | 30931 ft | 437 kts | 122° |
| 2026-05-08 00:24 | 33.86675 | 31.71643 | 31091 ft | 433 kts | 122° |
| 2026-05-08 00:24 | 33.73594 | 31.96165 | 30878 ft | 437 kts | 123° |
| 2026-05-08 00:24 | 33.60498 | 32.20549 | 31077 ft | 434 kts | 123° |
| 2026-05-08 00:24 | 33.47338 | 32.44891 | 30952 ft | 435 kts | 123° |
| 2026-05-08 00:25 | 33.21598 | 32.92037 | 27439 ft | 409 kts | 123° |
| 2026-05-08 00:25 | 33.09801 | 33.13445 | 22937 ft | 367 kts | 123° |
| 2026-05-08 00:25 | 32.98230 | 33.34322 | 14845 ft | 336 kts | 123° |
| 2026-05-08 00:26 | 32.89145 | 33.50638 | 12707 ft | 218 kts | 123° |
| 2026-05-08 00:26 | 32.87480 | 33.53597 | 13757 ft | 214 kts | 124° |
| 2026-05-08 00:26 | 32.85501 | 33.57040 | 13528 ft | 288 kts | 124° |
| 2026-05-08 00:26 | 32.82932 | 33.61247 | 13894 ft | 338 kts | 129° |
| 2026-05-08 00:27 | 32.79375 | 33.65263 | 14334 ft | 378 kts | 142° |
| 2026-05-08 00:27 | 32.75480 | 33.69710 | 15280 ft | 399 kts | 129° |
| 2026-05-08 00:27 | 32.71599 | 33.74582 | 16393 ft | 411 kts | 131° |
| 2026-05-08 00:27 | 32.67768 | 33.79732 | 17389 ft | 419 kts | 135° |
| 2026-05-08 00:28 | 32.63911 | 33.84864 | 17206 ft | 395 kts | 133° |
| 2026-05-08 00:28 | 32.60428 | 33.89327 | 16591 ft | 349 kts | 132° |
| 2026-05-08 00:28 | 32.57295 | 33.93434 | 15550 ft | 325 kts | 132° |
| 2026-05-08 00:28 | 32.54227 | 33.97338 | 14926 ft | 322 kts | 133° |
| 2026-05-08 00:29 | 32.51190 | 34.01130 | 14437 ft | 320 kts | 133° |
| 2026-05-08 00:29 | 32.48133 | 34.04944 | 13945 ft | 318 kts | 133° |
| 2026-05-08 00:29 | 32.45147 | 34.08668 | 13014 ft | 307 kts | 133° |
| 2026-05-08 00:29 | 32.42350 | 34.12386 | 11692 ft | 299 kts | 125° |
| 2026-05-08 00:30 | 32.40039 | 34.16427 | 10442 ft | 297 kts | 124° |
| 2026-05-08 00:30 | 32.37699 | 34.20529 | 9907 ft | 300 kts | 124° |
| 2026-05-08 00:30 | 32.35370 | 34.24600 | 9404 ft | 298 kts | 124° |
| 2026-05-08 00:30 | 32.33057 | 34.28637 | 8906 ft | 295 kts | 124° |
| 2026-05-08 00:31 | 32.30755 | 34.32637 | 8408 ft | 293 kts | 124° |
| 2026-05-08 00:31 | 32.28472 | 34.36600 | 7921 ft | 291 kts | 124° |
| 2026-05-08 00:31 | 32.26194 | 34.40549 | 7406 ft | 289 kts | 124° |
| 2026-05-08 00:31 | 32.23935 | 34.44464 | 6941 ft | 285 kts | 124° |
| 2026-05-08 00:32 | 32.21700 | 34.48322 | 6439 ft | 285 kts | 124° |
| 2026-05-08 00:32 | 32.19459 | 34.52180 | 5948 ft | 285 kts | 124° |
| 2026-05-08 00:32 | 32.17226 | 34.56024 | 5457 ft | 281 kts | 124° |
| 2026-05-08 00:32 | 32.15196 | 34.59848 | 4979 ft | 274 kts | 121° |
| 2026-05-08 00:33 | 32.13376 | 34.63559 | 4662 ft | 247 kts | 120° |
| 2026-05-08 00:33 | 32.11670 | 34.66865 | 3983 ft | 226 kts | 121° |
| 2026-05-08 00:33 | 32.10113 | 34.69891 | 3408 ft | 205 kts | 121° |
| 2026-05-08 00:33 | 32.08722 | 34.72581 | 2851 ft | 178 kts | 121° |
| 2026-05-08 00:34 | 32.07565 | 34.74817 | 2415 ft | 146 kts | 121° |
| 2026-05-08 00:34 | 32.06571 | 34.76739 | 2072 ft | 140 kts | 121° |
| 2026-05-08 00:34 | 32.06219 | 34.77420 | 1931 ft | 141 kts | 121° |
| 2026-05-08 00:34 | 32.05870 | 34.78093 | 1796 ft | 141 kts | 121° |
| 2026-05-08 00:35 | 32.04849 | 34.80066 | 1425 ft | 141 kts | 121° |
| 2026-05-08 00:35 | 32.03829 | 34.82037 | 1050 ft | 140 kts | 121° |
| 2026-05-08 00:35 | 32.03454 | 34.82762 | 915 ft | 139 kts | 121° |
| 2026-05-08 00:35 | 32.02760 | 34.84101 | 658 ft | 139 kts | 121° |
| 2026-05-08 00:36 | 32.02423 | 34.84752 | 534 ft | 139 kts | 121° |
| 2026-05-08 00:36 | 32.02173 | 34.85233 | 432 ft | 138 kts | 121° |
| 2026-05-08 00:36 | 32.01677 | 34.86189 | 248 ft | 138 kts | 121° |
| 2026-05-08 00:36 | 32.01177 | 34.87142 | 122 ft | 129 kts | 120° |
| 2026-05-08 00:37 | 32.00804 | 34.87865 | 122 ft | 68 kts | 121° |
| 2026-05-08 00:37 | 32.00697 | 34.88071 | 122 ft | 18 kts | 122° |
| 2026-05-08 00:37 | 32.00620 | 34.88227 | 120 ft | 28 kts | 121° |
| 2026-05-08 00:38 | 32.00338 | 34.88623 | 125 ft | 29 kts | 146° |
| 2026-05-08 00:38 | 32.00226 | 34.88673 | 120 ft | 17 kts | 191° |
| 2026-05-08 00:38 | 32.00222 | 34.88560 | 119 ft | 22 kts | 302° |
| 2026-05-08 00:38 | 32.00332 | 34.88367 | 122 ft | 33 kts | 297° |
| 2026-05-08 00:39 | 32.00436 | 34.88154 | 121 ft | 24 kts | 303° |
| 2026-05-08 00:39 | 32.00515 | 34.87992 | 120 ft | 16 kts | 276° |
| 2026-05-08 00:39 | 32.00430 | 34.87906 | 120 ft | 22 kts | 211° |
| 2026-05-08 00:39 | 32.00267 | 34.87783 | 120 ft | 33 kts | 209° |
| 2026-05-08 00:40 | 32.00197 | 34.87622 | 122 ft | 23 kts | 289° |
| 2026-05-08 00:40 | 32.00225 | 34.87522 | 121 ft | 11 kts | 254° |
| 2026-05-08 00:40 | 32.00214 | 34.87466 | 120 ft | 0 kts | 259° |